Miemaru — JL6277 — position and weather

sailwx.info

Track history (hours):
 
Tides and Currents Weather Stations Pressure Air Temp Water Temp Dewpoint Dewpoint Depression Visibility Wind Speed Wind Dir Waves Ship Positions

Miemaru

Last reported at 2017-Dec-10 14:45 UTC. Time now 2017-Dec-12 06:11 UTC.
Position N 34°21' E 134°23'.

Length 75 m; draft 3.7 m.

Type: Cargo ship. MMSI: 431500599.

Date/timePositionNaut miles runAvg speedWind from/ knotsBaromVisibWave heightAir tempDewpointWater temp
2017-Dec-10 14:45N 34°21' E 134°23'311.4
2017-Dec-10 14:29N 34°20' E 134°26'511.5
2017-Dec-10 14:00N 34°18' E 134°32'611.6
2017-Dec-10 13:30N 34°15' E 134°38'811.3
2017-Dec-10 12:49N 34°09' E 134°44'411.2
2017-Dec-10 12:30N 34°06' E 134°47'611.0
2017-Dec-10 12:00N 34°02' E 134°51'611.3
2017-Dec-10 11:31N 33°58' E 134°56'611.2
2017-Dec-10 10:57N 33°53' E 135°00'86 9.3
2017-Dec-10 01:41N 34°05' E 136°43'7411.8
2017-Dec-09 19:27N 34°33' E 138°06'4 9.4
2017-Dec-09 18:59N 34°34' E 138°11'4 9.1
2017-Dec-09 18:30N 34°34' E 138°17'5 9.8
2017-Dec-09 17:59N 34°34' E 138°23'7 9.4
2017-Dec-09 17:14N 34°34' E 138°31'4 9.2
2017-Dec-09 16:47N 34°34' E 138°36'4 9.0
2017-Dec-09 16:22N 34°34' E 138°41'3 8.8
2017-Dec-09 16:00N 34°35' E 138°45'4 8.7
2017-Dec-09 15:30N 34°35' E 138°50'4 7.9
2017-Dec-09 15:00N 34°35' E 138°55'6 9.3
2017-Dec-09 14:20N 34°39' E 139°01'511.5
2017-Dec-09 13:56N 34°43' E 139°04'511.0
2017-Dec-09 13:29N 34°47' E 139°07'511.1
2017-Dec-09 13:00N 34°51' E 139°11'612.0
2017-Dec-09 12:30N 34°56' E 139°16'511.0
2017-Dec-09 12:00N 34°58' E 139°22'510.8
2017-Dec-09 11:30N 35°01' E 139°28'510.0
2017-Dec-09 11:01N 35°03' E 139°33'611.6
2017-Dec-09 10:31N 35°06' E 139°39'611.7
2017-Dec-09 10:00N 35°10' E 139°44'611.1
2017-Dec-09 09:30N 35°16' E 139°46'611.4
2017-Dec-09 09:00N 35°21' E 139°42'510.7
2017-Dec-09 08:31N 35°26' E 139°45'611.8
2017-Dec-09 08:01N 35°29' E 139°51'510.4
2017-Dec-09 07:30N 35°35' E 139°51'4 1.0
2017-Dec-09 03:31N 35°38' E 139°48'0 0.0
2017-Dec-09 03:25N 35°38' E 139°48'0 0.0
2017-Dec-08 23:02N 35°38' E 139°48'0 0.0
2017-Dec-08 22:58N 35°38' E 139°48'3 7.3
2017-Dec-08 22:31N 35°35' E 139°51'3 5.5
2017-Dec-08 21:59N 35°34' E 139°54'0 0.6
2017-Dec-08 21:31N 35°34' E 139°53'3 6.5
2017-Dec-08 21:01N 35°31' E 139°53'510.4
2017-Dec-08 20:30N 35°27' E 139°49'510.7
2017-Dec-08 20:01N 35°22' E 139°45'510.5
2017-Dec-08 19:31N 35°17' E 139°45'510.0
2017-Dec-08 19:00N 35°12' E 139°47'510.4
2017-Dec-08 18:30N 35°07' E 139°44'5 9.9
2017-Dec-08 18:00N 35°04' E 139°40'510.3
2017-Dec-08 17:31N 35°00' E 139°36'711.5
2017-Dec-08 16:52N 34°56' E 139°29'511.2
2017-Dec-08 16:27N 34°53' E 139°24'510.5
2017-Dec-08 15:58N 34°50' E 139°19'5 9.8
2017-Dec-08 15:30N 34°47' E 139°15'7 9.8
2017-Dec-08 14:45N 34°42' E 139°08'2 9.6
2017-Dec-08 14:30N 34°41' E 139°05'610.4
2017-Dec-08 13:56N 34°37' E 138°60'511.0
2017-Dec-08 13:30N 34°35' E 138°55'711.5
2017-Dec-08 12:56N 34°34' E 138°47'712.4
2017-Dec-08 12:24N 34°33' E 138°39'1712.3
2017-Dec-08 10:59N 34°31' E 138°18'7710.8
2017-Dec-08 03:50N 34°10' E 136°48'410.4
2017-Dec-08 03:29N 34°07' E 136°45'84 8.8
2017-Dec-07 17:50N 33°48' E 135°05'611.9
2017-Dec-07 17:22N 33°53' E 135°01'612.1
2017-Dec-07 16:55N 33°57' E 134°57'512.2
2017-Dec-07 16:30N 34°01' E 134°53'612.2
2017-Dec-07 16:00N 34°05' E 134°48'612.3
2017-Dec-07 15:29N 34°10' E 134°43'612.1
2017-Dec-07 15:00N 34°15' E 134°39'611.4
2017-Dec-07 14:30N 34°17' E 134°33'611.1
2017-Dec-07 14:00N 34°19' E 134°26'611.2
2017-Dec-07 13:30N 34°22' E 134°20'710.4
2017-Dec-07 12:49N 34°24' E 134°12'  
2017-Dec-04 10:30N 35°17' E 139°45'612.6
2017-Dec-04 10:00N 35°23' E 139°42'611.9
2017-Dec-04 09:30N 35°27' E 139°48'611.9
2017-Dec-04 09:00N 35°31' E 139°53'611.5
2017-Dec-04 08:30N 35°37' E 139°49'2 0.2
2017-Dec-03 22:56N 35°37' E 139°48'2 4.5
2017-Dec-03 22:29N 35°36' E 139°50'3 5.4
2017-Dec-03 21:59N 35°35' E 139°52'0 0.0
2017-Dec-03 21:26N 35°35' E 139°52'0 0.0
2017-Dec-03 20:56N 35°35' E 139°52'0 0.0
2017-Dec-03 20:26N 35°35' E 139°52'0 0.0
2017-Dec-03 19:50N 35°35' E 139°52'0 0.0
2017-Dec-03 19:26N 35°35' E 139°52'0 0.0
2017-Dec-03 18:50N 35°35' E 139°52'0 0.0
2017-Dec-03 18:30N 35°35' E 139°52'4 7.9
2017-Dec-03 18:00N 35°31' E 139°53'511.0
2017-Dec-03 17:30N 35°26' E 139°49'511.0
2017-Dec-03 17:00N 35°22' E 139°45'510.5
2017-Dec-03 16:31N 35°16' E 139°46'510.8
2017-Dec-03 16:00N 35°11' E 139°47'510.3
2017-Dec-03 15:30N 35°06' E 139°45'510.6
2017-Dec-03 15:00N 35°03' E 139°40'611.9
2017-Dec-03 14:30N 34°59' E 139°34'713.0
2017-Dec-03 13:59N 34°55' E 139°28'813.2
2017-Dec-03 13:23N 34°50' E 139°20'513.5
2017-Dec-03 13:00N 34°47' E 139°15'913.1
2017-Dec-03 12:21N 34°42' E 139°07'411.6
2017-Dec-03 12:00N 34°39' E 139°03'713.2
2017-Dec-03 11:30N 34°35' E 138°57'813.0
2017-Dec-03 10:55N 34°34' E 138°47'512.2
2017-Dec-03 10:28N 34°34' E 138°41'712.5
2017-Dec-03 09:54N 34°33' E 138°32'712.6
2017-Dec-03 09:21N 34°32' E 138°24'512.3
2017-Dec-03 08:56N 34°32' E 138°18'16510.2
2017-Dec-02 16:44N 33°49' E 135°06'311.8
2017-Dec-02 16:27N 33°51' E 135°03'511.7
2017-Dec-02 15:59N 33°55' E 134°59'611.8
2017-Dec-02 15:30N 33°59' E 134°54'612.0
2017-Dec-02 15:01N 34°04' E 134°49'612.3
2017-Dec-02 14:30N 34°09' E 134°44'713.4
2017-Dec-02 14:00N 34°14' E 134°39'612.4
2017-Dec-02 13:30N 34°17' E 134°33'611.8
2017-Dec-02 13:00N 34°19' E 134°26'611.6
2017-Dec-02 12:30N 34°22' E 134°20'711.2
2017-Dec-02 11:53N 34°24' E 134°12'  
Track history (hours):
 
Tides and Currents Weather Stations Pressure Air Temp Water Temp Dewpoint Dewpoint Depression Visibility Wind Speed Wind Dir Waves Ship Positions

Miemaru

Last reported at 2017-Dec-10 14:45 UTC. Time now 2017-Dec-12 06:11 UTC.
Position N 34°21' E 134°23'.

Length 75 m; draft 3.7 m.

Type: Cargo ship. MMSI: 431500599.

Date/timePositionNaut miles runAvg speedWind from/ knotsBaromVisibWave heightAir tempDewpointWater temp
2017-Dec-10 14:45N 34°21' E 134°23'311.4
2017-Dec-10 14:29N 34°20' E 134°26'511.5
2017-Dec-10 14:00N 34°18' E 134°32'611.6
2017-Dec-10 13:30N 34°15' E 134°38'811.3
2017-Dec-10 12:49N 34°09' E 134°44'411.2
2017-Dec-10 12:30N 34°06' E 134°47'611.0
2017-Dec-10 12:00N 34°02' E 134°51'611.3
2017-Dec-10 11:31N 33°58' E 134°56'611.2
2017-Dec-10 10:57N 33°53' E 135°00'86 9.3
2017-Dec-10 01:41N 34°05' E 136°43'7411.8
2017-Dec-09 19:27N 34°33' E 138°06'4 9.4
2017-Dec-09 18:59N 34°34' E 138°11'4 9.1
2017-Dec-09 18:30N 34°34' E 138°17'5 9.8
2017-Dec-09 17:59N 34°34' E 138°23'7 9.4
2017-Dec-09 17:14N 34°34' E 138°31'4 9.2
2017-Dec-09 16:47N 34°34' E 138°36'4 9.0
2017-Dec-09 16:22N 34°34' E 138°41'3 8.8
2017-Dec-09 16:00N 34°35' E 138°45'4 8.7
2017-Dec-09 15:30N 34°35' E 138°50'4 7.9
2017-Dec-09 15:00N 34°35' E 138°55'6 9.3
2017-Dec-09 14:20N 34°39' E 139°01'511.5
2017-Dec-09 13:56N 34°43' E 139°04'511.0
2017-Dec-09 13:29N 34°47' E 139°07'511.1
2017-Dec-09 13:00N 34°51' E 139°11'612.0
2017-Dec-09 12:30N 34°56' E 139°16'511.0
2017-Dec-09 12:00N 34°58' E 139°22'510.8
2017-Dec-09 11:30N 35°01' E 139°28'510.0
2017-Dec-09 11:01N 35°03' E 139°33'611.6
2017-Dec-09 10:31N 35°06' E 139°39'611.7
2017-Dec-09 10:00N 35°10' E 139°44'611.1
2017-Dec-09 09:30N 35°16' E 139°46'611.4
2017-Dec-09 09:00N 35°21' E 139°42'510.7
2017-Dec-09 08:31N 35°26' E 139°45'611.8
2017-Dec-09 08:01N 35°29' E 139°51'510.4
2017-Dec-09 07:30N 35°35' E 139°51'4 1.0
2017-Dec-09 03:31N 35°38' E 139°48'0 0.0
2017-Dec-09 03:25N 35°38' E 139°48'0 0.0
2017-Dec-08 23:02N 35°38' E 139°48'0 0.0
2017-Dec-08 22:58N 35°38' E 139°48'3 7.3
2017-Dec-08 22:31N 35°35' E 139°51'3 5.5
2017-Dec-08 21:59N 35°34' E 139°54'0 0.6
2017-Dec-08 21:31N 35°34' E 139°53'3 6.5
2017-Dec-08 21:01N 35°31' E 139°53'510.4
2017-Dec-08 20:30N 35°27' E 139°49'510.7
2017-Dec-08 20:01N 35°22' E 139°45'510.5
2017-Dec-08 19:31N 35°17' E 139°45'510.0
2017-Dec-08 19:00N 35°12' E 139°47'510.4
2017-Dec-08 18:30N 35°07' E 139°44'5 9.9
2017-Dec-08 18:00N 35°04' E 139°40'510.3
2017-Dec-08 17:31N 35°00' E 139°36'711.5
2017-Dec-08 16:52N 34°56' E 139°29'511.2
2017-Dec-08 16:27N 34°53' E 139°24'510.5
2017-Dec-08 15:58N 34°50' E 139°19'5 9.8
2017-Dec-08 15:30N 34°47' E 139°15'7 9.8
2017-Dec-08 14:45N 34°42' E 139°08'2 9.6
2017-Dec-08 14:30N 34°41' E 139°05'610.4
2017-Dec-08 13:56N 34°37' E 138°60'511.0
2017-Dec-08 13:30N 34°35' E 138°55'711.5
2017-Dec-08 12:56N 34°34' E 138°47'712.4
2017-Dec-08 12:24N 34°33' E 138°39'1712.3
2017-Dec-08 10:59N 34°31' E 138°18'7710.8
2017-Dec-08 03:50N 34°10' E 136°48'410.4
2017-Dec-08 03:29N 34°07' E 136°45'84 8.8
2017-Dec-07 17:50N 33°48' E 135°05'611.9
2017-Dec-07 17:22N 33°53' E 135°01'612.1
2017-Dec-07 16:55N 33°57' E 134°57'512.2
2017-Dec-07 16:30N 34°01' E 134°53'612.2
2017-Dec-07 16:00N 34°05' E 134°48'612.3
2017-Dec-07 15:29N 34°10' E 134°43'612.1
2017-Dec-07 15:00N 34°15' E 134°39'611.4
2017-Dec-07 14:30N 34°17' E 134°33'611.1
2017-Dec-07 14:00N 34°19' E 134°26'611.2
2017-Dec-07 13:30N 34°22' E 134°20'710.4
2017-Dec-07 12:49N 34°24' E 134°12'  
2017-Dec-04 10:30N 35°17' E 139°45'612.6
2017-Dec-04 10:00N 35°23' E 139°42'611.9
2017-Dec-04 09:30N 35°27' E 139°48'611.9
2017-Dec-04 09:00N 35°31' E 139°53'611.5
2017-Dec-04 08:30N 35°37' E 139°49'2 0.2
2017-Dec-03 22:56N 35°37' E 139°48'2 4.5
2017-Dec-03 22:29N 35°36' E 139°50'3 5.4
2017-Dec-03 21:59N 35°35' E 139°52'0 0.0
2017-Dec-03 21:26N 35°35' E 139°52'0 0.0
2017-Dec-03 20:56N 35°35' E 139°52'0 0.0
2017-Dec-03 20:26N 35°35' E 139°52'0 0.0
2017-Dec-03 19:50N 35°35' E 139°52'0 0.0
2017-Dec-03 19:26N 35°35' E 139°52'0 0.0
2017-Dec-03 18:50N 35°35' E 139°52'0 0.0
2017-Dec-03 18:30N 35°35' E 139°52'4 7.9
2017-Dec-03 18:00N 35°31' E 139°53'511.0
2017-Dec-03 17:30N 35°26' E 139°49'511.0
2017-Dec-03 17:00N 35°22' E 139°45'510.5
2017-Dec-03 16:31N 35°16' E 139°46'510.8
2017-Dec-03 16:00N 35°11' E 139°47'510.3
2017-Dec-03 15:30N 35°06' E 139°45'510.6
2017-Dec-03 15:00N 35°03' E 139°40'611.9
2017-Dec-03 14:30N 34°59' E 139°34'713.0
2017-Dec-03 13:59N 34°55' E 139°28'813.2
2017-Dec-03 13:23N 34°50' E 139°20'513.5
2017-Dec-03 13:00N 34°47' E 139°15'913.1
2017-Dec-03 12:21N 34°42' E 139°07'411.6
2017-Dec-03 12:00N 34°39' E 139°03'713.2
2017-Dec-03 11:30N 34°35' E 138°57'813.0
2017-Dec-03 10:55N 34°34' E 138°47'512.2
2017-Dec-03 10:28N 34°34' E 138°41'712.5
2017-Dec-03 09:54N 34°33' E 138°32'712.6
2017-Dec-03 09:21N 34°32' E 138°24'512.3
2017-Dec-03 08:56N 34°32' E 138°18'16510.2
2017-Dec-02 16:44N 33°49' E 135°06'311.8
2017-Dec-02 16:27N 33°51' E 135°03'511.7
2017-Dec-02 15:59N 33°55' E 134°59'611.8
2017-Dec-02 15:30N 33°59' E 134°54'612.0
2017-Dec-02 15:01N 34°04' E 134°49'612.3
2017-Dec-02 14:30N 34°09' E 134°44'713.4
2017-Dec-02 14:00N 34°14' E 134°39'612.4
2017-Dec-02 13:30N 34°17' E 134°33'611.8
2017-Dec-02 13:00N 34°19' E 134°26'611.6
2017-Dec-02 12:30N 34°22' E 134°20'711.2
2017-Dec-02 11:53N 34°24' E 134°12'  

Dump ship's entire track history